Time;durP1;ratioP1;P1;durP2;ratioP2;P2;SDS_P1;SDS_P2;PMS_P1;PMS_P2;Temp;Humidity;BMP_temperature;BMP_pressure;BME280_temperature;BME280_humidity;BME280_pressure;Samples;Min_cycle;Max_cycle;Signal;HPM_P1;HPM_P2
2022/05/21 00:01:59;;;;;;;2.42;1.08;;;15.30;99.90;;;;;;5054153;28;20208;-34
2022/05/21 00:04:26;;;;;;;3.50;0.97;;;15.20;99.90;;;;;;5056366;28;20659;-34
2022/05/21 00:06:53;;;;;;;2.88;1.38;;;15.20;99.90;;;;;;5051591;28;20193;-34
2022/05/21 00:09:20;;;;;;;3.08;1.40;;;15.20;99.90;;;;;;5066475;28;20567;-35
2022/05/21 00:11:48;;;;;;;4.50;1.40;;;15.20;99.90;;;;;;5062607;28;20211;-34
2022/05/21 00:14:15;;;;;;;2.20;1.40;;;15.10;99.90;;;;;;5063503;28;20282;-35
2022/05/21 00:16:42;;;;;;;2.80;1.33;;;15.10;99.90;;;;;;5066227;28;20211;-34
2022/05/21 00:19:15;;;;;;;7.97;1.48;;;15.10;99.90;;;;;;5035138;28;20225;-34
2022/05/21 00:21:42;;;;;;;6.22;1.70;;;15.00;99.90;;;;;;5038208;28;20201;-35
2022/05/21 00:24:09;;;;;;;3.33;1.55;;;15.00;99.90;;;;;;5037065;28;20299;-34
2022/05/21 00:26:36;;;;;;;4.43;1.63;;;15.00;99.90;;;;;;5048165;28;20207;-34
2022/05/21 00:29:04;;;;;;;3.50;1.38;;;15.00;99.90;;;;;;5053144;28;20218;-34
2022/05/21 00:31:31;;;;;;;3.65;1.50;;;14.90;99.90;;;;;;5068825;28;20291;-35
2022/05/21 00:34:02;;;;;;;3.78;1.50;;;14.90;99.90;;;;;;5064316;28;20211;-33
2022/05/21 00:36:34;;;;;;;4.37;1.40;;;14.90;99.90;;;;;;5038737;28;20699;-34
2022/05/21 00:39:01;;;;;;;7.47;1.50;;;14.90;99.90;;;;;;5054440;28;20243;-33
2022/05/21 00:41:28;;;;;;;4.15;1.27;;;14.90;99.90;;;;;;5071490;28;20207;-34
2022/05/21 00:43:58;;;;;;;3.70;1.42;;;14.90;99.90;;;;;;5058697;28;20201;-33
2022/05/21 00:46:40;;;;;;;2.97;1.20;;;14.90;99.90;;;;;;5068526;28;20207;-33
2022/05/21 00:49:24;;;;;;;4.40;1.50;;;14.90;99.90;;;;;;5071274;28;20199;-34
2022/05/21 00:52:00;;;;;;;3.38;1.42;;;14.90;99.90;;;;;;5058545;28;20722;-34
2022/05/21 00:54:30;;;;;;;4.30;1.48;;;14.90;99.90;;;;;;5051409;28;20216;-34
2022/05/21 00:57:08;;;;;;;2.63;1.40;;;14.90;99.90;;;;;;5035621;28;20695;-34
2022/05/21 00:59:50;;;;;;;2.13;1.30;;;14.90;99.90;;;;;;5043572;28;20270;-34
2022/05/21 01:02:24;;;;;;;4.05;1.23;;;14.80;99.90;;;;;;5049603;28;20222;-34
2022/05/21 01:04:57;;;;;;;4.05;1.40;;;14.80;99.90;;;;;;5055857;28;20208;-34
2022/05/21 01:07:25;;;;;;;3.20;1.27;;;14.80;99.90;;;;;;5056415;28;20624;-34
2022/05/21 01:09:56;;;;;;;5.80;1.65;;;14.80;99.90;;;;;;5053005;28;20377;-34
2022/05/21 01:12:32;;;;;;;5.03;1.48;;;14.80;99.90;;;;;;5049299;28;20205;-34
2022/05/21 01:15:04;;;;;;;3.75;1.73;;;14.80;99.90;;;;;;5054486;28;20222;-34
2022/05/21 01:17:33;;;;;;;6.32;1.67;;;14.70;99.90;;;;;;5054482;28;20667;-34
2022/05/21 01:20:07;;;;;;;3.78;1.35;;;14.70;99.90;;;;;;5051961;28;20216;-34
2022/05/21 01:22:47;;;;;;;4.03;1.42;;;14.70;99.90;;;;;;5050587;28;20212;-34
2022/05/21 01:25:20;;;;;;;3.45;1.30;;;14.70;99.90;;;;;;5046132;28;20201;-34
2022/05/21 01:27:53;;;;;;;3.03;1.30;;;14.70;99.90;;;;;;5036321;28;20307;-35
2022/05/21 01:30:46;;;;;;;5.10;1.57;;;14.70;99.90;;;;;;5054016;28;20193;-35
2022/05/21 01:33:18;;;;;;;4.47;1.30;;;14.70;99.90;;;;;;5048178;28;20216;-35
2022/05/21 01:35:46;;;;;;;4.30;1.83;;;14.70;99.90;;;;;;5050967;28;20208;-35
2022/05/21 01:38:19;;;;;;;3.65;1.20;;;14.70;99.90;;;;;;5061826;28;20197;-35
2022/05/21 01:40:49;;;;;;;4.35;1.40;;;14.70;99.90;;;;;;5069156;28;20230;-35
2022/05/21 01:46:10;;;;;;;5.93;1.33;;;14.60;99.90;;;;;;5031501;28;20205;-35
2022/05/21 01:48:42;;;;;;;2.90;1.08;;;14.60;99.90;;;;;;5050400;28;20203;-35
2022/05/21 01:51:09;;;;;;;4.17;1.47;;;14.60;99.90;;;;;;5049955;28;20242;-35
2022/05/21 01:53:40;;;;;;;2.47;1.20;;;14.60;99.90;;;;;;5049719;28;20216;-35
2022/05/21 01:56:09;;;;;;;3.47;1.23;;;14.50;99.90;;;;;;5049894;28;20240;-35
2022/05/21 01:58:36;;;;;;;3.83;1.10;;;14.50;99.90;;;;;;5049776;28;20216;-35
2022/05/21 02:01:09;;;;;;;4.28;1.33;;;14.50;99.90;;;;;;5048632;28;20228;-35
2022/05/21 02:03:41;;;;;;;7.50;1.42;;;14.50;99.90;;;;;;5033522;28;20295;-35
2022/05/21 02:06:09;;;;;;;3.38;1.38;;;14.50;99.90;;;;;;5029652;28;20219;-35
2022/05/21 02:08:36;;;;;;;3.50;1.10;;;14.50;99.90;;;;;;5033777;28;20600;-35
2022/05/21 02:11:04;;;;;;;3.65;1.23;;;14.50;99.90;;;;;;5049912;28;20204;-35
2022/05/21 02:13:36;;;;;;;3.67;1.10;;;14.50;99.90;;;;;;5049319;28;20315;-34
2022/05/21 02:16:06;;;;;;;3.63;1.30;;;14.50;99.90;;;;;;5049411;28;20212;-35
2022/05/21 02:18:33;;;;;;;4.03;1.30;;;14.50;99.90;;;;;;5048615;28;20303;-35
2022/05/21 02:21:01;;;;;;;5.72;1.48;;;14.50;99.90;;;;;;5041606;28;20224;-34
2022/05/21 02:23:30;;;;;;;5.87;1.40;;;14.50;99.90;;;;;;5031826;28;20213;-35
2022/05/21 02:26:00;;;;;;;3.08;1.25;;;14.50;99.90;;;;;;5029650;28;20291;-35
2022/05/21 02:28:29;;;;;;;2.00;1.27;;;14.50;99.90;;;;;;5029110;28;20726;-35
2022/05/21 02:30:56;;;;;;;3.40;1.25;;;14.50;99.90;;;;;;5028890;28;20209;-35
2022/05/21 02:33:24;;;;;;;3.83;1.40;;;14.40;99.90;;;;;;5029996;28;20213;-35
2022/05/21 02:35:53;;;;;;;3.20;1.20;;;14.50;99.90;;;;;;5037252;28;20250;-35
2022/05/21 02:41:13;;;;;;;3.53;1.00;;;14.50;99.90;;;;;;5069306;28;20632;-34
2022/05/21 02:43:46;;;;;;;4.30;1.43;;;14.50;99.90;;;;;;5068849;28;20294;-34
2022/05/21 02:46:15;;;;;;;4.50;1.58;;;14.50;99.90;;;;;;5069085;28;20222;-34
2022/05/21 02:48:42;;;;;;;4.30;1.35;;;14.50;99.90;;;;;;5069384;28;20207;-34
2022/05/21 02:51:14;;;;;;;4.13;1.55;;;14.50;99.90;;;;;;5052490;28;20283;-34
2022/05/21 02:53:46;;;;;;;4.28;1.60;;;14.50;99.90;;;;;;5029143;28;20204;-35
2022/05/21 02:56:16;;;;;;;4.88;1.48;;;14.50;99.90;;;;;;5029347;28;20268;-34
2022/05/21 02:58:45;;;;;;;6.20;1.52;;;14.50;99.90;;;;;;5028937;28;20204;-34
2022/05/21 03:01:15;;;;;;;5.25;1.42;;;14.50;99.90;;;;;;5028456;28;20601;-35
2022/05/21 03:03:44;;;;;;;6.75;1.92;;;14.50;99.90;;;;;;5042187;28;20199;-34
2022/05/21 03:06:12;;;;;;;4.43;1.58;;;14.60;99.90;;;;;;5068787;28;20505;-34
2022/05/21 03:11:29;;;;;;;8.80;1.92;;;14.60;99.90;;;;;;5043852;28;20217;-33
2022/05/21 03:13:58;;;;;;;5.00;1.80;;;14.60;99.90;;;;;;5028427;28;20232;-34
2022/05/21 03:16:28;;;;;;;6.03;1.90;;;14.50;99.90;;;;;;5031134;28;20744;-34
2022/05/21 03:19:02;;;;;;;5.20;1.95;;;14.50;99.90;;;;;;5048070;28;20204;-34
2022/05/21 03:21:29;;;;;;;5.70;1.90;;;14.60;99.90;;;;;;5048460;28;20224;-34
2022/05/21 03:23:58;;;;;;;6.13;1.77;;;14.60;99.90;;;;;;5048362;28;20212;-35
2022/05/21 03:26:29;;;;;;;7.55;2.00;;;14.60;99.90;;;;;;5029852;28;20266;-35
2022/05/21 03:28:56;;;;;;;5.37;1.90;;;14.60;99.90;;;;;;5027266;28;20211;-35
2022/05/21 03:31:24;;;;;;;8.45;1.90;;;14.60;99.90;;;;;;5027714;28;20211;-35
2022/05/21 03:33:54;;;;;;;7.53;2.20;;;14.50;99.90;;;;;;5028468;28;20279;-34
2022/05/21 03:36:21;;;;;;;8.02;2.17;;;14.50;99.90;;;;;;5038705;28;20211;-35
2022/05/21 03:38:49;;;;;;;7.37;2.00;;;14.50;99.90;;;;;;5059284;28;20284;-34
2022/05/21 03:41:17;;;;;;;6.20;2.13;;;14.50;99.90;;;;;;5065066;28;20346;-35
2022/05/21 03:43:47;;;;;;;8.40;2.28;;;14.50;99.90;;;;;;5026417;28;20519;-35
2022/05/21 03:46:15;;;;;;;7.23;2.37;;;14.50;99.90;;;;;;5038713;28;20685;-35
2022/05/21 03:48:42;;;;;;;7.50;1.90;;;14.50;99.90;;;;;;5048401;28;20686;-35
2022/05/21 03:51:10;;;;;;;10.80;2.83;;;14.50;99.90;;;;;;5047700;28;20350;-35
2022/05/21 03:53:37;;;;;;;6.85;2.00;;;14.50;99.90;;;;;;5046674;28;20391;-35
2022/05/21 03:56:05;;;;;;;6.78;2.30;;;14.50;99.90;;;;;;5047365;28;20795;-35
2022/05/21 03:58:33;;;;;;;9.03;2.13;;;14.50;99.90;;;;;;5047009;28;20279;-34
2022/05/21 04:01:05;;;;;;;8.13;2.10;;;14.60;99.90;;;;;;5047767;28;20231;-35
2022/05/21 04:03:35;;;;;;;6.67;2.20;;;14.50;99.90;;;;;;5040424;28;20223;-34
2022/05/21 04:06:02;;;;;;;10.03;2.60;;;14.60;99.90;;;;;;5060257;28;20296;-35
2022/05/21 04:08:34;;;;;;;10.40;2.43;;;14.50;99.90;;;;;;5060546;28;20221;-34
2022/05/21 04:11:02;;;;;;;7.70;2.53;;;14.50;99.90;;;;;;5027912;28;20270;-35
2022/05/21 04:13:34;;;;;;;7.10;2.55;;;14.50;99.90;;;;;;5027400;28;20271;-35
2022/05/21 04:16:02;;;;;;;8.05;2.75;;;14.60;99.90;;;;;;5033934;28;20212;-35
2022/05/21 04:18:31;;;;;;;8.20;2.47;;;14.50;99.90;;;;;;5046234;28;20208;-34
2022/05/21 04:20:58;;;;;;;7.95;2.70;;;14.60;99.90;;;;;;5028604;28;20223;-34
2022/05/21 04:23:27;;;;;;;11.07;2.53;;;14.60;99.90;;;;;;5027742;28;20244;-34
2022/05/21 04:25:57;;;;;;;10.88;2.90;;;14.60;99.90;;;;;;5034495;28;20201;-34
2022/05/21 04:28:28;;;;;;;9.03;2.87;;;14.60;99.90;;;;;;5036589;28;20214;-35
2022/05/21 04:30:58;;;;;;;13.10;2.97;;;14.60;99.90;;;;;;5027361;28;20207;-35
2022/05/21 04:33:28;;;;;;;7.53;2.53;;;14.70;99.90;;;;;;5028263;28;20231;-35
2022/05/21 04:38:43;;;;;;;7.70;2.60;;;14.70;99.90;;;;;;5057100;28;20296;-35
2022/05/21 04:41:10;;;;;;;8.13;2.67;;;14.80;99.90;;;;;;5067297;28;20701;-35
2022/05/21 04:43:38;;;;;;;9.95;2.42;;;14.80;99.90;;;;;;5067235;28;21025;-35
2022/05/21 04:46:06;;;;;;;8.85;2.35;;;14.80;99.90;;;;;;5067130;28;20686;-34
2022/05/21 04:48:36;;;;;;;7.70;2.47;;;14.80;99.90;;;;;;5065813;28;20203;-35
2022/05/21 04:51:17;;;;;;;6.85;2.30;;;14.90;99.90;;;;;;5033137;28;20232;-35
2022/05/21 04:53:45;;;;;;;8.93;2.85;;;14.90;99.90;;;;;;5034589;28;20204;-34
2022/05/21 04:56:13;;;;;;;10.32;2.92;;;15.00;99.90;;;;;;5047170;28;20838;-35
2022/05/21 04:59:00;;;;;;;8.50;2.90;;;15.00;99.90;;;;;;5046759;28;20192;-35
2022/05/21 05:01:30;;;;;;;9.35;2.80;;;15.10;99.90;;;;;;5046763;28;20236;-35
2022/05/21 05:04:00;;;;;;;5.63;2.78;;;15.10;99.90;;;;;;5030817;28;20308;-35
2022/05/21 05:06:30;;;;;;;9.93;3.00;;;15.20;99.90;;;;;;5062828;28;20238;-35
2022/05/21 05:08:59;;;;;;;10.80;3.10;;;15.20;99.90;;;;;;5016713;28;20701;-35
2022/05/21 05:11:27;;;;;;;11.23;3.60;;;15.30;99.90;;;;;;5031204;28;20201;-35
2022/05/21 05:13:56;;;;;;;11.27;3.28;;;15.30;99.90;;;;;;5030574;28;20239;-35
2022/05/21 05:16:27;;;;;;;12.65;3.30;;;15.40;99.90;;;;;;5030390;28;20213;-35
2022/05/21 05:18:54;;;;;;;11.83;3.93;;;15.40;99.90;;;;;;5031155;28;20225;-35
2022/05/21 05:21:24;;;;;;;10.68;3.17;;;15.50;99.90;;;;;;5030645;28;20227;-35
2022/05/21 05:23:51;;;;;;;9.25;3.35;;;15.50;99.90;;;;;;5031378;28;20739;-35
2022/05/21 05:26:19;;;;;;;10.13;3.20;;;15.60;99.90;;;;;;5030962;28;20229;-33
2022/05/21 05:28:51;;;;;;;7.55;3.00;;;15.60;99.90;;;;;;5038895;28;20239;-33
2022/05/21 05:31:19;;;;;;;12.35;3.50;;;15.70;99.90;;;;;;5050219;28;20312;-33
2022/05/21 05:33:46;;;;;;;14.63;3.72;;;15.70;99.90;;;;;;5050567;28;20310;-34
2022/05/21 05:36:21;;;;;;;14.30;4.05;;;15.80;99.90;;;;;;5049307;28;20311;-34
2022/05/21 05:38:48;;;;;;;11.10;3.22;;;15.80;99.90;;;;;;5051718;28;20243;-34
2022/05/21 05:41:17;;;;;;;11.23;3.60;;;15.90;99.90;;;;;;5042044;28;20231;-34
2022/05/21 05:43:57;;;;;;;8.15;3.38;;;15.90;99.90;;;;;;5030323;28;20222;-34
2022/05/21 05:46:28;;;;;;;9.35;3.08;;;15.90;99.90;;;;;;5030100;28;20224;-34
2022/05/21 05:48:55;;;;;;;12.18;3.45;;;16.00;99.90;;;;;;5030323;28;20204;-34
2022/05/21 05:51:24;;;;;;;13.33;3.20;;;16.00;99.90;;;;;;5030346;28;20201;-34
2022/05/21 05:53:54;;;;;;;15.23;4.13;;;16.00;99.90;;;;;;5030091;28;20209;-34
2022/05/21 05:56:22;;;;;;;24.95;5.88;;;16.10;99.90;;;;;;5029961;28;20233;-34
2022/05/21 06:01:35;;;;;;;10.85;3.00;;;16.20;99.90;;;;;;5030350;28;20224;-34
2022/05/21 06:04:02;;;;;;;10.23;3.10;;;16.20;99.90;;;;;;5032577;28;20312;-35
2022/05/21 06:06:34;;;;;;;11.10;2.90;;;16.30;99.90;;;;;;5068625;28;20562;-35
2022/05/21 06:09:02;;;;;;;10.07;3.10;;;16.30;99.90;;;;;;5055110;28;20193;-35
2022/05/21 06:11:37;;;;;;;14.45;3.38;;;16.40;99.90;;;;;;5030054;28;20286;-34
2022/05/21 06:14:07;;;;;;;11.67;3.33;;;16.50;99.90;;;;;;5029935;28;20247;-34
2022/05/21 06:16:34;;;;;;;10.30;2.70;;;16.50;99.90;;;;;;5063824;28;20227;-34
2022/05/21 06:19:03;;;;;;;14.10;3.20;;;16.50;99.90;;;;;;5039918;28;20208;-34
2022/05/21 06:21:33;;;;;;;33.95;8.35;;;16.60;99.90;;;;;;5028132;28;20220;-35
2022/05/21 06:24:01;;;;;;;10.23;3.63;;;16.60;99.90;;;;;;5029827;28;20295;-34
2022/05/21 06:26:28;;;;;;;12.65;3.35;;;16.70;99.90;;;;;;5029257;28;20203;-34
2022/05/21 06:29:00;;;;;;;16.80;3.90;;;16.70;99.90;;;;;;5029063;28;20213;-34
2022/05/21 06:31:27;;;;;;;56.88;11.07;;;16.70;99.90;;;;;;5029423;28;20212;-34
2022/05/21 06:33:57;;;;;;;13.02;4.60;;;16.80;99.90;;;;;;5028119;28;20291;-33
2022/05/21 06:36:24;;;;;;;13.32;4.00;;;16.80;99.90;;;;;;5041958;28;20557;-34
2022/05/21 06:38:55;;;;;;;13.30;4.30;;;16.90;99.90;;;;;;5045639;28;20201;-34
2022/05/21 06:41:23;;;;;;;13.90;4.13;;;16.90;99.90;;;;;;5029696;28;20256;-34
2022/05/21 06:43:53;;;;;;;11.15;4.35;;;17.00;99.90;;;;;;5038175;28;20369;-34
2022/05/21 06:46:22;;;;;;;10.95;4.18;;;17.10;99.90;;;;;;5048865;28;20568;-34
2022/05/21 06:48:52;;;;;;;11.65;3.95;;;17.10;99.90;;;;;;5044122;28;20200;-35
2022/05/21 06:51:19;;;;;;;8.13;3.55;;;17.10;99.90;;;;;;5029250;28;20205;-35
2022/05/21 06:53:49;;;;;;;69.05;13.55;;;17.10;99.90;;;;;;5045044;28;20212;-35
2022/05/21 06:56:17;;;;;;;37.60;8.20;;;17.20;99.90;;;;;;5047621;28;20707;-35
2022/05/21 06:58:50;;;;;;;14.48;4.60;;;17.20;99.90;;;;;;5047416;28;20827;-35
2022/05/21 07:01:20;;;;;;;13.57;3.92;;;17.20;99.90;;;;;;5048238;28;20216;-35
2022/05/21 07:03:50;;;;;;;10.93;3.78;;;17.20;99.90;;;;;;5048603;28;20302;-35
2022/05/21 07:09:03;;;;;;;11.30;3.67;;;17.20;99.90;;;;;;5034457;28;20302;-35
2022/05/21 07:11:32;;;;;;;12.90;4.03;;;17.20;99.90;;;;;;5028646;28;20207;-36
2022/05/21 07:14:01;;;;;;;25.45;5.82;;;17.30;99.90;;;;;;5028375;28;20594;-35
2022/05/21 07:16:36;;;;;;;14.95;4.15;;;17.30;99.90;;;;;;5026418;28;20205;-36
2022/05/21 07:19:05;;;;;;;12.85;4.70;;;17.30;99.90;;;;;;5027266;28;20299;-35
2022/05/21 07:21:32;;;;;;;12.15;4.03;;;17.30;99.90;;;;;;5028420;28;20232;-35
2022/05/21 07:24:04;;;;;;;12.57;3.63;;;17.40;99.90;;;;;;5029179;28;20638;-35
2022/05/21 07:26:34;;;;;;;59.88;11.95;;;17.40;99.90;;;;;;5033700;28;20204;-35
2022/05/21 07:29:04;;;;;;;15.90;5.10;;;17.40;99.90;;;;;;5047328;28;20207;-35
2022/05/21 07:31:31;;;;;;;14.07;4.40;;;17.50;99.90;;;;;;5047480;28;20579;-35
2022/05/21 07:33:58;;;;;;;13.45;4.25;;;17.50;99.90;;;;;;5048552;28;20327;-35
2022/05/21 07:36:25;;;;;;;12.10;4.15;;;17.60;99.90;;;;;;5048537;28;20218;-35
2022/05/21 07:38:57;;;;;;;10.18;4.10;;;17.60;99.90;;;;;;5060000;28;20207;-35
2022/05/21 07:41:24;;;;;;;12.32;4.78;;;17.60;99.90;;;;;;5030952;28;20229;-35
2022/05/21 07:43:51;;;;;;;12.25;5.22;;;17.70;99.90;;;;;;5035808;28;20277;-35
2022/05/21 07:46:19;;;;;;;11.02;4.93;;;17.60;99.90;;;;;;5047581;28;20204;-35
2022/05/21 07:48:46;;;;;;;12.43;5.22;;;17.70;99.90;;;;;;5048409;28;20242;-35
2022/05/21 07:51:18;;;;;;;10.95;4.88;;;17.70;99.90;;;;;;5046498;28;20565;-35
2022/05/21 07:53:45;;;;;;;13.95;5.13;;;17.80;99.90;;;;;;5047420;28;20632;-35
2022/05/21 07:56:16;;;;;;;11.55;4.45;;;17.80;99.90;;;;;;5045623;28;20266;-35
2022/05/21 07:58:49;;;;;;;15.45;4.35;;;17.80;99.90;;;;;;5026274;28;20671;-35
2022/05/21 08:01:22;;;;;;;13.18;4.40;;;17.80;99.90;;;;;;5038376;28;20750;-35
2022/05/21 08:03:49;;;;;;;11.73;4.50;;;17.80;99.90;;;;;;5048121;28;20224;-35
2022/05/21 08:06:19;;;;;;;9.43;4.28;;;17.80;99.90;;;;;;5057137;28;20717;-35
2022/05/21 08:08:51;;;;;;;9.50;3.65;;;17.80;99.90;;;;;;5054855;28;20287;-35
2022/05/21 08:11:18;;;;;;;9.90;3.75;;;17.90;99.90;;;;;;5027693;28;20307;-35
2022/05/21 08:13:48;;;;;;;13.48;4.47;;;17.90;99.90;;;;;;5031806;28;20315;-35
2022/05/21 08:16:15;;;;;;;12.20;3.85;;;17.90;99.90;;;;;;5047176;28;20294;-35
2022/05/21 08:18:42;;;;;;;9.82;3.83;;;17.90;99.90;;;;;;5032062;28;20201;-35
2022/05/21 08:21:10;;;;;;;15.82;4.38;;;17.90;99.90;;;;;;5027344;28;20221;-34
2022/05/21 08:29:27;;;;;;;14.18;4.78;;;17.90;99.90;;;;;;5027647;28;20236;-35
2022/05/21 08:31:57;;;;;;;9.05;4.10;;;18.00;99.90;;;;;;5027097;28;20281;-36
2022/05/21 08:34:25;;;;;;;13.48;4.40;;;18.00;99.90;;;;;;5031697;28;20200;-36
2022/05/21 08:36:53;;;;;;;10.98;3.88;;;18.10;99.90;;;;;;5047539;28;20216;-35
2022/05/21 08:39:23;;;;;;;10.82;4.55;;;18.10;99.90;;;;;;5058585;28;20241;-35
2022/05/21 08:42:06;;;;;;;41.80;9.77;;;18.10;99.90;;;;;;5029248;28;20565;-36
2022/05/21 08:44:48;;;;;;;10.48;3.78;;;18.20;99.90;;;;;;5030078;28;20271;-36
2022/05/21 08:47:35;;;;;;;30.08;6.07;;;18.20;99.90;;;;;;5029978;28;20288;-36
2022/05/21 08:50:13;;;;;;;10.25;3.30;;;18.30;99.90;;;;;;5029826;28;20204;-36
2022/05/21 08:52:57;;;;;;;8.38;3.00;;;18.30;99.90;;;;;;5031822;28;20216;-36
2022/05/21 08:55:42;;;;;;;12.63;3.35;;;18.40;99.90;;;;;;5029780;28;20244;-36
2022/05/21 08:58:29;;;;;;;10.45;3.15;;;18.50;99.90;;;;;;5033818;28;20219;-36
2022/05/21 09:00:58;;;;;;;53.25;8.73;;;18.50;99.90;;;;;;5039851;28;20234;-36
2022/05/21 09:03:28;;;;;;;16.75;4.10;;;18.50;99.90;;;;;;5051270;28;20216;-36
2022/05/21 09:06:05;;;;;;;13.57;3.42;;;18.50;99.90;;;;;;5037415;28;20583;-36
2022/05/21 09:08:54;;;;;;;97.32;20.75;;;18.50;99.90;;;;;;5045345;28;20240;-36
2022/05/21 09:11:43;;;;;;;12.95;4.75;;;18.50;99.90;;;;;;5049435;28;20214;-36
2022/05/21 09:14:30;;;;;;;11.20;3.33;;;18.60;99.90;;;;;;5050418;28;20200;-36
2022/05/21 09:17:00;;;;;;;8.27;2.95;;;18.70;99.90;;;;;;5050643;28;20674;-35
2022/05/21 09:19:40;;;;;;;9.93;2.90;;;18.70;99.90;;;;;;5050407;28;20234;-36
2022/05/21 09:22:15;;;;;;;9.32;2.88;;;18.70;99.90;;;;;;5049708;28;20318;-35
2022/05/21 09:25:20;;;;;;;8.70;2.85;;;18.80;99.90;;;;;;5047703;28;20203;-36
2022/05/21 09:27:49;;;;;;;9.57;2.78;;;18.80;99.90;;;;;;5029762;28;20197;-35
2022/05/21 09:30:33;;;;;;;9.35;2.55;;;18.90;99.90;;;;;;5045607;28;20531;-36
2022/05/21 09:33:40;;;;;;;7.65;2.55;;;18.90;99.90;;;;;;5030655;28;20287;-35
2022/05/21 09:36:18;;;;;;;10.50;3.08;;;18.90;99.90;;;;;;5030083;28;20208;-35
2022/05/21 09:38:53;;;;;;;9.52;3.03;;;18.90;99.90;;;;;;5054576;28;20228;-37
2022/05/21 09:41:22;;;;;;;9.73;3.17;;;18.90;99.90;;;;;;5031945;28;20201;-36
2022/05/21 09:46:45;;;;;;;9.63;2.80;;;19.00;99.90;;;;;;5029902;28;20589;-35
2022/05/21 09:49:18;;;;;;;8.90;2.70;;;19.00;99.90;;;;;;5030045;28;20197;-35
2022/05/21 09:52:00;;;;;;;7.15;2.33;;;19.00;99.90;;;;;;5030171;28;20236;-34
2022/05/21 09:54:40;;;;;;;7.50;2.08;;;19.00;99.90;;;;;;5029482;28;20193;-34
2022/05/21 09:57:30;;;;;;;11.40;2.97;;;19.00;99.90;;;;;;5030134;28;20251;-35
2022/05/21 10:00:04;;;;;;;8.23;2.97;;;19.10;99.90;;;;;;5039162;28;20414;-34
2022/05/21 10:02:45;;;;;;;9.32;2.80;;;19.10;99.90;;;;;;5049343;28;20587;-35
2022/05/21 10:05:28;;;;;;;9.48;2.30;;;19.10;99.90;;;;;;5049275;28;20553;-34
2022/05/21 10:11:27;;;;;;;12.15;2.25;;;19.20;99.90;;;;;;5038656;28;20200;-35
2022/05/21 10:14:03;;;;;;;5.43;2.15;;;19.20;99.90;;;;;;5035467;28;20330;-34
2022/05/21 10:16:48;;;;;;;8.45;3.08;;;19.20;99.90;;;;;;5034493;28;20604;-34
2022/05/21 10:19:38;;;;;;;4.88;1.90;;;19.30;99.90;;;;;;5049942;28;20356;-34
2022/05/21 10:22:08;;;;;;;8.40;2.00;;;19.30;99.90;;;;;;5049116;28;20224;-35
2022/05/21 10:24:42;;;;;;;8.75;2.45;;;19.40;99.90;;;;;;5049522;28;20295;-35
2022/05/21 10:27:29;;;;;;;6.43;2.20;;;19.30;99.90;;;;;;5049338;28;20196;-34
2022/05/21 10:30:02;;;;;;;7.03;2.17;;;19.40;99.90;;;;;;5041672;28;20209;-35
2022/05/21 10:32:57;;;;;;;7.20;2.17;;;19.40;99.90;;;;;;5046213;28;20216;-34
2022/05/21 10:36:05;;;;;;;4.85;1.40;;;19.40;99.90;;;;;;5029137;28;20241;-34
2022/05/21 10:38:56;;;;;;;5.57;2.00;;;19.40;99.90;;;;;;5047131;28;20268;-34
2022/05/21 10:41:46;;;;;;;4.88;1.67;;;19.50;99.90;;;;;;5032306;28;20223;-34
2022/05/21 10:44:37;;;;;;;6.70;1.90;;;19.50;99.90;;;;;;5028739;28;20291;-35
2022/05/21 10:47:15;;;;;;;8.73;2.40;;;19.50;99.90;;;;;;5029140;28;20229;-36
2022/05/21 10:49:57;;;;;;;6.32;2.05;;;19.60;99.90;;;;;;5029102;28;20217;-36
2022/05/21 10:52:35;;;;;;;5.72;2.03;;;19.60;99.90;;;;;;5029085;28;20475;-36
2022/05/21 10:55:38;;;;;;;4.50;2.13;;;19.70;99.90;;;;;;5028772;28;20196;-37
2022/05/21 10:58:17;;;;;;;6.95;2.25;;;19.70;99.90;;;;;;5028245;28;20236;-36
2022/05/21 11:01:06;;;;;;;6.43;2.05;;;19.70;99.90;;;;;;5026895;28;20753;-35
2022/05/21 11:04:03;;;;;;;7.00;1.85;;;19.80;99.90;;;;;;5028870;28;20223;-36
2022/05/21 11:06:30;;;;;;;5.30;1.92;;;19.80;99.90;;;;;;5028566;28;20236;-35
2022/05/21 11:09:18;;;;;;;8.68;2.20;;;19.80;99.90;;;;;;5029295;28;20213;-35
2022/05/21 11:12:05;;;;;;;8.15;2.13;;;19.90;99.90;;;;;;5028712;28;20262;-34
2022/05/21 11:14:45;;;;;;;6.97;2.17;;;19.90;99.90;;;;;;5027061;28;20216;-35
2022/05/21 11:17:29;;;;;;;7.68;2.58;;;19.90;99.90;;;;;;5028079;28;20224;-35
2022/05/21 11:20:01;;;;;;;5.68;1.70;;;19.90;99.90;;;;;;5039490;28;20203;-36
2022/05/21 11:22:48;;;;;;;8.80;2.20;;;19.90;99.90;;;;;;5043012;28;20239;-36
2022/05/21 11:25:22;;;;;;;7.00;1.90;;;19.90;99.90;;;;;;5036743;28;20219;-35
2022/05/21 11:28:19;;;;;;;6.35;1.88;;;20.00;99.90;;;;;;5027992;28;20200;-35
2022/05/21 11:30:46;;;;;;;6.22;1.80;;;19.90;99.90;;;;;;5040543;28;20685;-36
2022/05/21 11:39:04;;;;;;;7.03;1.88;;;19.90;99.90;;;;;;5059662;28;20207;-36
2022/05/21 11:42:11;;;;;;;6.97;1.75;;;20.00;99.90;;;;;;5060979;28;20654;-36
2022/05/21 11:44:58;;;;;;;6.10;1.90;;;20.00;99.90;;;;;;5048324;28;20646;-35
2022/05/21 11:47:43;;;;;;;7.32;1.75;;;20.00;99.70;;;;;;5047119;28;20199;-35
2022/05/21 11:50:21;;;;;;;5.38;1.50;;;20.00;99.70;;;;;;5047751;28;20686;-35
2022/05/21 11:52:55;;;;;;;7.22;1.70;;;20.00;99.60;;;;;;5047676;28;20223;-36
2022/05/21 11:56:01;;;;;;;6.20;2.00;;;20.00;99.70;;;;;;5046574;28;20296;-35
2022/05/21 11:59:02;;;;;;;5.38;1.60;;;20.00;99.50;;;;;;5040356;28;20237;-35
2022/05/21 12:01:44;;;;;;;6.82;1.73;;;20.00;99.90;;;;;;5025427;28;20240;-36
2022/05/21 12:04:25;;;;;;;6.38;1.85;;;20.00;99.60;;;;;;5026222;28;20228;-36
2022/05/21 12:06:52;;;;;;;5.55;1.67;;;20.00;99.90;;;;;;5028600;28;20197;-36
2022/05/21 12:09:24;;;;;;;3.97;1.40;;;20.00;99.90;;;;;;5047283;28;20400;-36
2022/05/21 12:12:22;;;;;;;5.45;1.33;;;20.00;99.90;;;;;;5032467;28;20276;-36
2022/05/21 12:15:13;;;;;;;6.28;1.58;;;20.10;99.90;;;;;;5046953;28;20196;-35
2022/05/21 12:17:54;;;;;;;5.00;1.40;;;20.20;99.90;;;;;;5026574;28;20308;-35
2022/05/21 12:20:45;;;;;;;6.03;1.38;;;20.40;99.70;;;;;;5027550;28;20205;-34
2022/05/21 12:23:32;;;;;;;6.22;1.52;;;20.50;99.60;;;;;;5027354;28;20300;-38
2022/05/21 12:26:06;;;;;;;5.50;1.63;;;20.50;99.90;;;;;;5038332;28;20204;-34
2022/05/21 12:28:47;;;;;;;8.90;1.65;;;20.50;99.90;;;;;;5043616;28;20584;-35
2022/05/21 12:31:25;;;;;;;7.60;2.08;;;20.60;99.70;;;;;;5026561;28;20271;-35
2022/05/21 12:34:20;;;;;;;4.43;1.50;;;20.70;99.80;;;;;;5042768;28;20231;-34
2022/05/21 12:36:56;;;;;;;5.95;1.77;;;20.70;99.90;;;;;;5047135;28;20216;-34
2022/05/21 12:39:42;;;;;;;4.60;1.40;;;20.70;99.90;;;;;;5062908;28;20203;-34
2022/05/21 12:42:52;;;;;;;5.88;1.60;;;20.80;99.90;;;;;;5044198;28;20728;-34
2022/05/21 12:45:44;;;;;;;3.45;1.20;;;20.80;99.90;;;;;;5027566;28;20209;-35
2022/05/21 12:48:22;;;;;;;5.50;1.52;;;20.80;99.90;;;;;;5026995;28;20197;-35
2022/05/21 12:50:54;;;;;;;4.20;1.33;;;20.80;99.90;;;;;;5042813;28;20281;-37
2022/05/21 12:53:50;;;;;;;5.60;1.67;;;20.80;99.90;;;;;;5046869;28;20705;-36
2022/05/21 12:56:35;;;;;;;5.85;1.60;;;20.90;99.90;;;;;;5047038;28;20335;-36
2022/05/21 12:59:24;;;;;;;5.78;1.50;;;20.90;99.90;;;;;;5046576;28;20200;-36
2022/05/21 13:02:08;;;;;;;5.45;1.60;;;21.00;99.90;;;;;;5046594;28;20311;-36
2022/05/21 13:04:41;;;;;;;6.45;1.75;;;21.10;99.90;;;;;;5027372;28;20234;-36
2022/05/21 13:07:11;;;;;;;6.57;1.83;;;21.10;99.90;;;;;;5037684;28;20208;-36
2022/05/21 13:10:02;;;;;;;6.68;1.70;;;21.20;99.90;;;;;;5059924;28;20300;-36
2022/05/21 13:12:39;;;;;;;7.72;1.60;;;21.30;99.70;;;;;;5066226;28;20826;-35
2022/05/21 13:15:10;;;;;;;5.53;1.27;;;21.30;99.80;;;;;;5066856;28;20238;-35
2022/05/21 13:17:41;;;;;;;5.45;1.50;;;21.30;99.90;;;;;;5066130;28;20253;-35
2022/05/21 13:20:17;;;;;;;3.28;1.10;;;21.30;99.90;;;;;;5033249;28;20309;-35
2022/05/21 13:23:12;;;;;;;5.00;1.27;;;21.30;99.90;;;;;;5026660;28;20235;-35
2022/05/21 13:25:40;;;;;;;5.40;1.38;;;21.40;99.80;;;;;;5025625;28;20228;-35
2022/05/21 13:28:17;;;;;;;4.82;1.48;;;21.40;99.90;;;;;;5027701;28;20285;-35
2022/05/21 13:30:47;;;;;;;7.05;1.75;;;21.40;99.80;;;;;;5034781;28;20190;-35
2022/05/21 13:33:47;;;;;;;4.97;1.65;;;21.50;99.80;;;;;;5050107;28;20201;-35
2022/05/21 13:36:31;;;;;;;5.43;1.60;;;21.50;99.90;;;;;;5047859;28;20224;-35
2022/05/21 13:39:05;;;;;;;5.90;1.60;;;21.50;99.40;;;;;;5055929;28;20204;-35
2022/05/21 13:41:40;;;;;;;4.70;1.40;;;21.50;99.80;;;;;;5060339;28;20203;-35
2022/05/21 13:44:15;;;;;;;3.38;1.27;;;21.50;99.40;;;;;;5067677;28;20284;-36
2022/05/21 13:46:50;;;;;;;4.82;1.60;;;21.50;99.80;;;;;;5069716;28;20195;-36
2022/05/21 13:49:33;;;;;;;6.50;1.50;;;21.50;99.70;;;;;;5069980;28;20198;-36
2022/05/21 13:52:07;;;;;;;5.03;1.60;;;21.60;99.90;;;;;;5069865;28;20638;-36
2022/05/21 13:54:36;;;;;;;5.05;1.38;;;21.60;99.40;;;;;;5046585;28;20227;-36